sensor_id;sensor_type;location;lat;lon;timestamp;temperature;humidity
18805;DHT22;9530;48.930;9.526;2022-07-10T00:01:48;16.40;99.90
18805;DHT22;9530;48.930;9.526;2022-07-10T00:04:15;16.30;99.90
18805;DHT22;9530;48.930;9.526;2022-07-10T00:06:41;16.20;99.90
18805;DHT22;9530;48.930;9.526;2022-07-10T00:09:12;16.20;99.90
18805;DHT22;9530;48.930;9.526;2022-07-10T00:11:39;16.10;99.90
18805;DHT22;9530;48.930;9.526;2022-07-10T00:14:07;16.00;99.90
18805;DHT22;9530;48.930;9.526;2022-07-10T00:16:33;16.00;99.90
18805;DHT22;9530;48.930;9.526;2022-07-10T00:19:00;16.00;99.90
18805;DHT22;9530;48.930;9.526;2022-07-10T00:21:27;16.10;99.90
18805;DHT22;9530;48.930;9.526;2022-07-10T00:23:53;16.10;99.90
18805;DHT22;9530;48.930;9.526;2022-07-10T00:26:20;16.10;99.90
18805;DHT22;9530;48.930;9.526;2022-07-10T00:28:47;16.10;99.90
18805;DHT22;9530;48.930;9.526;2022-07-10T00:31:15;16.00;99.90
18805;DHT22;9530;48.930;9.526;2022-07-10T00:33:42;16.00;99.90
18805;DHT22;9530;48.930;9.526;2022-07-10T00:36:09;16.00;99.90
18805;DHT22;9530;48.930;9.526;2022-07-10T00:38:35;16.00;99.90
18805;DHT22;9530;48.930;9.526;2022-07-10T00:41:02;15.90;99.90
18805;DHT22;9530;48.930;9.526;2022-07-10T00:43:29;15.80;99.90
18805;DHT22;9530;48.930;9.526;2022-07-10T00:45:55;15.90;99.90
18805;DHT22;9530;48.930;9.526;2022-07-10T00:48:23;15.80;99.90
18805;DHT22;9530;48.930;9.526;2022-07-10T00:50:51;15.80;99.90
18805;DHT22;9530;48.930;9.526;2022-07-10T00:53:17;15.80;99.90
18805;DHT22;9530;48.930;9.526;2022-07-10T00:55:44;15.80;99.90
18805;DHT22;9530;48.930;9.526;2022-07-10T00:58:12;15.70;99.90
18805;DHT22;9530;48.930;9.526;2022-07-10T01:00:39;15.60;99.90
18805;DHT22;9530;48.930;9.526;2022-07-10T01:03:07;15.60;99.90
18805;DHT22;9530;48.930;9.526;2022-07-10T01:05:35;15.70;99.90
18805;DHT22;9530;48.930;9.526;2022-07-10T01:08:03;15.60;99.90
18805;DHT22;9530;48.930;9.526;2022-07-10T01:10:31;15.50;99.90
18805;DHT22;9530;48.930;9.526;2022-07-10T01:12:58;15.40;99.90
18805;DHT22;9530;48.930;9.526;2022-07-10T01:15:24;15.30;99.90
18805;DHT22;9530;48.930;9.526;2022-07-10T01:17:51;15.30;99.90
18805;DHT22;9530;48.930;9.526;2022-07-10T01:20:18;15.30;99.90
18805;DHT22;9530;48.930;9.526;2022-07-10T01:22:46;15.20;99.90
18805;DHT22;9530;48.930;9.526;2022-07-10T01:25:13;15.00;99.90
18805;DHT22;9530;48.930;9.526;2022-07-10T01:27:40;15.00;99.90
18805;DHT22;9530;48.930;9.526;2022-07-10T01:30:08;14.90;99.90
18805;DHT22;9530;48.930;9.526;2022-07-10T01:32:38;14.80;99.90
18805;DHT22;9530;48.930;9.526;2022-07-10T01:35:06;14.80;99.90
18805;DHT22;9530;48.930;9.526;2022-07-10T01:37:33;14.80;99.90
18805;DHT22;9530;48.930;9.526;2022-07-10T01:40:01;14.70;99.90
18805;DHT22;9530;48.930;9.526;2022-07-10T01:42:28;14.60;99.90
18805;DHT22;9530;48.930;9.526;2022-07-10T01:44:54;14.60;99.90
18805;DHT22;9530;48.930;9.526;2022-07-10T01:47:21;14.60;99.90
18805;DHT22;9530;48.930;9.526;2022-07-10T01:49:49;14.50;99.90
18805;DHT22;9530;48.930;9.526;2022-07-10T01:52:16;14.40;99.90
18805;DHT22;9530;48.930;9.526;2022-07-10T01:54:43;14.50;99.90
18805;DHT22;9530;48.930;9.526;2022-07-10T01:57:11;14.50;99.90
18805;DHT22;9530;48.930;9.526;2022-07-10T01:59:39;14.60;99.90
18805;DHT22;9530;48.930;9.526;2022-07-10T02:02:05;14.60;99.90
18805;DHT22;9530;48.930;9.526;2022-07-10T02:04:32;14.70;99.90
18805;DHT22;9530;48.930;9.526;2022-07-10T02:07:07;14.80;99.90
18805;DHT22;9530;48.930;9.526;2022-07-10T02:09:34;14.80;99.90
18805;DHT22;9530;48.930;9.526;2022-07-10T02:12:01;15.00;99.90
18805;DHT22;9530;48.930;9.526;2022-07-10T02:14:29;15.00;99.90
18805;DHT22;9530;48.930;9.526;2022-07-10T02:16:55;15.00;99.90
18805;DHT22;9530;48.930;9.526;2022-07-10T02:19:22;15.00;99.90
18805;DHT22;9530;48.930;9.526;2022-07-10T02:21:49;15.00;99.90
18805;DHT22;9530;48.930;9.526;2022-07-10T02:24:16;15.10;99.90
18805;DHT22;9530;48.930;9.526;2022-07-10T02:26:43;15.10;99.90
18805;DHT22;9530;48.930;9.526;2022-07-10T02:29:10;15.10;99.90
18805;DHT22;9530;48.930;9.526;2022-07-10T02:31:38;15.10;99.90
18805;DHT22;9530;48.930;9.526;2022-07-10T02:34:07;15.00;99.90
18805;DHT22;9530;48.930;9.526;2022-07-10T02:36:33;14.90;99.90
18805;DHT22;9530;48.930;9.526;2022-07-10T02:39:00;14.90;99.90
18805;DHT22;9530;48.930;9.526;2022-07-10T02:41:27;14.80;99.90
18805;DHT22;9530;48.930;9.526;2022-07-10T02:43:54;14.70;99.90
18805;DHT22;9530;48.930;9.526;2022-07-10T02:46:20;14.60;99.90
18805;DHT22;9530;48.930;9.526;2022-07-10T02:48:48;14.60;99.90
18805;DHT22;9530;48.930;9.526;2022-07-10T02:51:15;14.50;99.90
18805;DHT22;9530;48.930;9.526;2022-07-10T02:53:42;14.50;99.90
18805;DHT22;9530;48.930;9.526;2022-07-10T02:56:08;14.40;99.90
18805;DHT22;9530;48.930;9.526;2022-07-10T02:58:38;14.40;99.90
18805;DHT22;9530;48.930;9.526;2022-07-10T03:01:05;14.30;99.90
18805;DHT22;9530;48.930;9.526;2022-07-10T03:03:32;14.30;99.90
18805;DHT22;9530;48.930;9.526;2022-07-10T03:06:00;14.30;99.90
18805;DHT22;9530;48.930;9.526;2022-07-10T03:08:26;14.30;99.90
18805;DHT22;9530;48.930;9.526;2022-07-10T03:10:53;14.20;99.90
18805;DHT22;9530;48.930;9.526;2022-07-10T03:13:20;14.20;99.90
18805;DHT22;9530;48.930;9.526;2022-07-10T03:15:46;14.10;99.90
18805;DHT22;9530;48.930;9.526;2022-07-10T03:18:13;14.10;99.90
18805;DHT22;9530;48.930;9.526;2022-07-10T03:20:39;14.10;99.90
18805;DHT22;9530;48.930;9.526;2022-07-10T03:23:07;14.10;99.90
18805;DHT22;9530;48.930;9.526;2022-07-10T03:25:34;14.10;99.90
18805;DHT22;9530;48.930;9.526;2022-07-10T03:28:01;14.20;99.90
18805;DHT22;9530;48.930;9.526;2022-07-10T03:30:27;14.20;99.90
18805;DHT22;9530;48.930;9.526;2022-07-10T03:32:54;14.20;99.90
18805;DHT22;9530;48.930;9.526;2022-07-10T03:35:21;14.30;99.90
18805;DHT22;9530;48.930;9.526;2022-07-10T03:37:47;14.30;99.90
18805;DHT22;9530;48.930;9.526;2022-07-10T03:40:16;14.30;99.90
18805;DHT22;9530;48.930;9.526;2022-07-10T03:42:42;14.30;99.90
18805;DHT22;9530;48.930;9.526;2022-07-10T03:45:09;14.40;99.90
18805;DHT22;9530;48.930;9.526;2022-07-10T03:47:36;14.40;99.90
18805;DHT22;9530;48.930;9.526;2022-07-10T03:50:03;14.50;99.90
18805;DHT22;9530;48.930;9.526;2022-07-10T03:52:30;14.50;99.90
18805;DHT22;9530;48.930;9.526;2022-07-10T03:54:57;14.60;99.90
18805;DHT22;9530;48.930;9.526;2022-07-10T03:57:25;14.70;99.90
18805;DHT22;9530;48.930;9.526;2022-07-10T04:00:10;14.80;99.90
18805;DHT22;9530;48.930;9.526;2022-07-10T04:02:37;14.80;99.90
18805;DHT22;9530;48.930;9.526;2022-07-10T04:05:05;14.90;99.90
18805;DHT22;9530;48.930;9.526;2022-07-10T04:07:33;15.00;99.90
18805;DHT22;9530;48.930;9.526;2022-07-10T04:10:00;15.10;99.90
18805;DHT22;9530;48.930;9.526;2022-07-10T04:12:28;15.30;99.90
18805;DHT22;9530;48.930;9.526;2022-07-10T04:14:54;15.30;99.90
18805;DHT22;9530;48.930;9.526;2022-07-10T04:17:21;15.40;99.90
18805;DHT22;9530;48.930;9.526;2022-07-10T04:19:48;15.40;99.90
18805;DHT22;9530;48.930;9.526;2022-07-10T04:22:15;15.40;99.90
18805;DHT22;9530;48.930;9.526;2022-07-10T04:24:41;15.40;99.90
18805;DHT22;9530;48.930;9.526;2022-07-10T04:27:08;15.40;99.90
18805;DHT22;9530;48.930;9.526;2022-07-10T04:29:36;15.30;99.90
18805;DHT22;9530;48.930;9.526;2022-07-10T04:32:03;15.30;99.90
18805;DHT22;9530;48.930;9.526;2022-07-10T04:34:30;15.30;99.90
18805;DHT22;9530;48.930;9.526;2022-07-10T04:36:57;15.40;99.90
18805;DHT22;9530;48.930;9.526;2022-07-10T04:39:24;15.40;99.90
18805;DHT22;9530;48.930;9.526;2022-07-10T04:41:50;15.60;99.90
18805;DHT22;9530;48.930;9.526;2022-07-10T04:44:17;15.50;99.90
18805;DHT22;9530;48.930;9.526;2022-07-10T04:46:45;15.70;99.90
18805;DHT22;9530;48.930;9.526;2022-07-10T04:49:13;15.70;99.90
18805;DHT22;9530;48.930;9.526;2022-07-10T04:51:40;15.80;99.90
18805;DHT22;9530;48.930;9.526;2022-07-10T04:54:07;15.90;99.90
18805;DHT22;9530;48.930;9.526;2022-07-10T04:56:34;16.00;99.90
18805;DHT22;9530;48.930;9.526;2022-07-10T04:59:00;16.00;99.90
18805;DHT22;9530;48.930;9.526;2022-07-10T05:01:27;16.10;99.90
18805;DHT22;9530;48.930;9.526;2022-07-10T05:03:55;16.00;99.90
18805;DHT22;9530;48.930;9.526;2022-07-10T05:06:22;15.90;99.90
18805;DHT22;9530;48.930;9.526;2022-07-10T05:08:49;15.90;99.90
18805;DHT22;9530;48.930;9.526;2022-07-10T05:11:15;15.80;99.90
18805;DHT22;9530;48.930;9.526;2022-07-10T05:13:42;15.90;99.90
18805;DHT22;9530;48.930;9.526;2022-07-10T05:16:11;15.80;99.90
18805;DHT22;9530;48.930;9.526;2022-07-10T05:18:39;16.10;99.90
18805;DHT22;9530;48.930;9.526;2022-07-10T05:21:07;16.30;99.90
18805;DHT22;9530;48.930;9.526;2022-07-10T05:23:34;16.60;99.90
18805;DHT22;9530;48.930;9.526;2022-07-10T05:26:01;16.60;99.90
18805;DHT22;9530;48.930;9.526;2022-07-10T05:28:28;16.70;99.90
18805;DHT22;9530;48.930;9.526;2022-07-10T05:30:55;16.60;99.90
18805;DHT22;9530;48.930;9.526;2022-07-10T05:33:21;16.60;99.90
18805;DHT22;9530;48.930;9.526;2022-07-10T05:35:48;16.50;99.90
18805;DHT22;9530;48.930;9.526;2022-07-10T05:38:16;16.50;99.90
18805;DHT22;9530;48.930;9.526;2022-07-10T05:40:43;16.50;99.90
18805;DHT22;9530;48.930;9.526;2022-07-10T05:43:10;16.10;99.90
18805;DHT22;9530;48.930;9.526;2022-07-10T05:45:37;15.90;99.90
18805;DHT22;9530;48.930;9.526;2022-07-10T05:48:04;16.00;99.90
18805;DHT22;9530;48.930;9.526;2022-07-10T05:50:31;16.00;99.90
18805;DHT22;9530;48.930;9.526;2022-07-10T05:52:57;15.90;99.90
18805;DHT22;9530;48.930;9.526;2022-07-10T05:55:26;15.90;99.90
18805;DHT22;9530;48.930;9.526;2022-07-10T05:57:52;15.90;99.90
18805;DHT22;9530;48.930;9.526;2022-07-10T06:00:20;15.80;99.90
18805;DHT22;9530;48.930;9.526;2022-07-10T06:02:46;16.00;99.90
18805;DHT22;9530;48.930;9.526;2022-07-10T06:05:13;15.90;99.90
18805;DHT22;9530;48.930;9.526;2022-07-10T06:07:40;16.10;99.90
18805;DHT22;9530;48.930;9.526;2022-07-10T06:10:07;16.20;99.90
18805;DHT22;9530;48.930;9.526;2022-07-10T06:12:35;16.40;99.90
18805;DHT22;9530;48.930;9.526;2022-07-10T06:15:03;16.60;99.90
18805;DHT22;9530;48.930;9.526;2022-07-10T06:17:30;16.40;99.90
18805;DHT22;9530;48.930;9.526;2022-07-10T06:19:57;16.20;99.90
18805;DHT22;9530;48.930;9.526;2022-07-10T06:22:23;16.40;99.90
18805;DHT22;9530;48.930;9.526;2022-07-10T06:25:00;16.60;99.90
18805;DHT22;9530;48.930;9.526;2022-07-10T06:27:27;16.70;99.90
18805;DHT22;9530;48.930;9.526;2022-07-10T06:29:56;16.70;99.90
18805;DHT22;9530;48.930;9.526;2022-07-10T06:32:23;16.70;99.90
18805;DHT22;9530;48.930;9.526;2022-07-10T06:34:50;16.70;99.90
18805;DHT22;9530;48.930;9.526;2022-07-10T06:37:17;17.10;99.90
18805;DHT22;9530;48.930;9.526;2022-07-10T06:39:45;17.30;99.90
18805;DHT22;9530;48.930;9.526;2022-07-10T06:42:12;17.50;99.90
18805;DHT22;9530;48.930;9.526;2022-07-10T06:44:39;17.50;99.90
18805;DHT22;9530;48.930;9.526;2022-07-10T06:47:07;17.80;99.90
18805;DHT22;9530;48.930;9.526;2022-07-10T06:49:52;17.30;99.90
18805;DHT22;9530;48.930;9.526;2022-07-10T06:52:19;17.40;99.90
18805;DHT22;9530;48.930;9.526;2022-07-10T06:54:46;17.40;99.90
18805;DHT22;9530;48.930;9.526;2022-07-10T06:57:14;17.50;99.90
18805;DHT22;9530;48.930;9.526;2022-07-10T06:59:40;17.50;99.90
18805;DHT22;9530;48.930;9.526;2022-07-10T07:02:08;17.80;99.90
18805;DHT22;9530;48.930;9.526;2022-07-10T07:04:35;18.00;99.90
18805;DHT22;9530;48.930;9.526;2022-07-10T07:07:02;18.00;99.90
18805;DHT22;9530;48.930;9.526;2022-07-10T07:09:29;18.20;99.90
18805;DHT22;9530;48.930;9.526;2022-07-10T07:11:56;18.00;99.90
18805;DHT22;9530;48.930;9.526;2022-07-10T07:14:23;18.00;99.90
18805;DHT22;9530;48.930;9.526;2022-07-10T07:16:49;18.20;99.90
18805;DHT22;9530;48.930;9.526;2022-07-10T07:19:27;18.20;99.90
18805;DHT22;9530;48.930;9.526;2022-07-10T07:21:57;18.30;99.90
18805;DHT22;9530;48.930;9.526;2022-07-10T07:24:42;18.40;99.90
18805;DHT22;9530;48.930;9.526;2022-07-10T07:27:09;18.40;99.90
18805;DHT22;9530;48.930;9.526;2022-07-10T07:29:35;18.50;99.90
18805;DHT22;9530;48.930;9.526;2022-07-10T07:32:02;18.50;99.90
18805;DHT22;9530;48.930;9.526;2022-07-10T07:34:31;18.10;99.90
18805;DHT22;9530;48.930;9.526;2022-07-10T07:36:57;18.10;99.90
18805;DHT22;9530;48.930;9.526;2022-07-10T07:39:24;18.10;99.90
18805;DHT22;9530;48.930;9.526;2022-07-10T07:41:51;18.00;99.90
18805;DHT22;9530;48.930;9.526;2022-07-10T07:44:17;18.30;99.90
18805;DHT22;9530;48.930;9.526;2022-07-10T07:46:44;18.30;99.90
18805;DHT22;9530;48.930;9.526;2022-07-10T07:49:11;18.00;99.90
18805;DHT22;9530;48.930;9.526;2022-07-10T07:51:39;17.90;99.90
18805;DHT22;9530;48.930;9.526;2022-07-10T07:54:05;17.90;99.90
18805;DHT22;9530;48.930;9.526;2022-07-10T07:56:32;17.80;99.90
18805;DHT22;9530;48.930;9.526;2022-07-10T07:58:59;17.50;99.90
18805;DHT22;9530;48.930;9.526;2022-07-10T08:01:26;17.10;99.90
18805;DHT22;9530;48.930;9.526;2022-07-10T08:03:53;17.00;99.90
18805;DHT22;9530;48.930;9.526;2022-07-10T08:06:21;17.20;99.90
18805;DHT22;9530;48.930;9.526;2022-07-10T08:08:49;17.60;99.90
18805;DHT22;9530;48.930;9.526;2022-07-10T08:11:16;17.70;99.90
18805;DHT22;9530;48.930;9.526;2022-07-10T08:13:43;17.60;99.90
18805;DHT22;9530;48.930;9.526;2022-07-10T08:16:09;17.80;99.90
18805;DHT22;9530;48.930;9.526;2022-07-10T08:18:36;18.30;99.90
18805;DHT22;9530;48.930;9.526;2022-07-10T08:21:03;18.70;99.90
18805;DHT22;9530;48.930;9.526;2022-07-10T08:23:30;18.70;99.90
18805;DHT22;9530;48.930;9.526;2022-07-10T08:25:57;18.70;99.90
18805;DHT22;9530;48.930;9.526;2022-07-10T08:28:24;18.90;99.90
18805;DHT22;9530;48.930;9.526;2022-07-10T08:30:51;19.20;99.90
18805;DHT22;9530;48.930;9.526;2022-07-10T08:33:17;19.10;99.90
18805;DHT22;9530;48.930;9.526;2022-07-10T08:35:44;18.70;99.90
18805;DHT22;9530;48.930;9.526;2022-07-10T08:38:11;18.30;99.90
18805;DHT22;9530;48.930;9.526;2022-07-10T08:40:38;18.50;99.90
18805;DHT22;9530;48.930;9.526;2022-07-10T08:43:07;19.00;99.90
18805;DHT22;9530;48.930;9.526;2022-07-10T08:45:34;19.10;99.90
18805;DHT22;9530;48.930;9.526;2022-07-10T08:48:02;19.40;99.90
18805;DHT22;9530;48.930;9.526;2022-07-10T08:50:33;19.00;99.90
18805;DHT22;9530;48.930;9.526;2022-07-10T08:53:04;18.20;99.90
18805;DHT22;9530;48.930;9.526;2022-07-10T08:55:32;19.00;99.90
18805;DHT22;9530;48.930;9.526;2022-07-10T08:58:00;18.30;99.90
18805;DHT22;9530;48.930;9.526;2022-07-10T09:00:28;19.10;99.90
18805;DHT22;9530;48.930;9.526;2022-07-10T09:02:55;19.40;99.90
18805;DHT22;9530;48.930;9.526;2022-07-10T09:05:23;19.40;99.90
18805;DHT22;9530;48.930;9.526;2022-07-10T09:07:50;19.00;99.90
18805;DHT22;9530;48.930;9.526;2022-07-10T09:10:20;19.00;99.90
18805;DHT22;9530;48.930;9.526;2022-07-10T09:12:51;19.40;99.90
18805;DHT22;9530;48.930;9.526;2022-07-10T09:15:20;19.60;99.90
18805;DHT22;9530;48.930;9.526;2022-07-10T09:17:52;20.10;99.90
18805;DHT22;9530;48.930;9.526;2022-07-10T09:20:30;20.60;99.90
18805;DHT22;9530;48.930;9.526;2022-07-10T09:22:59;21.00;99.90
18805;DHT22;9530;48.930;9.526;2022-07-10T09:25:32;21.10;99.90
18805;DHT22;9530;48.930;9.526;2022-07-10T09:28:00;20.60;99.90
18805;DHT22;9530;48.930;9.526;2022-07-10T09:30:35;20.50;99.90
18805;DHT22;9530;48.930;9.526;2022-07-10T09:33:16;20.80;99.90
18805;DHT22;9530;48.930;9.526;2022-07-10T09:35:55;20.60;99.90
18805;DHT22;9530;48.930;9.526;2022-07-10T09:38:50;20.90;99.90
18805;DHT22;9530;48.930;9.526;2022-07-10T09:41:20;21.40;99.90
18805;DHT22;9530;48.930;9.526;2022-07-10T09:43:48;22.00;99.90
18805;DHT22;9530;48.930;9.526;2022-07-10T09:46:15;21.90;99.90
18805;DHT22;9530;48.930;9.526;2022-07-10T09:48:43;21.00;99.90
18805;DHT22;9530;48.930;9.526;2022-07-10T09:51:11;21.50;99.90
18805;DHT22;9530;48.930;9.526;2022-07-10T09:53:39;20.70;99.90
18805;DHT22;9530;48.930;9.526;2022-07-10T09:56:07;18.50;99.90
18805;DHT22;9530;48.930;9.526;2022-07-10T09:58:35;18.20;99.90
18805;DHT22;9530;48.930;9.526;2022-07-10T10:01:03;18.00;99.90
18805;DHT22;9530;48.930;9.526;2022-07-10T10:03:33;18.40;99.90
18805;DHT22;9530;48.930;9.526;2022-07-10T10:06:04;18.40;99.90
18805;DHT22;9530;48.930;9.526;2022-07-10T10:08:37;18.70;99.90
18805;DHT22;9530;48.930;9.526;2022-07-10T10:11:13;18.60;99.90
18805;DHT22;9530;48.930;9.526;2022-07-10T10:13:41;19.20;99.90
18805;DHT22;9530;48.930;9.526;2022-07-10T10:16:09;20.30;99.90
18805;DHT22;9530;48.930;9.526;2022-07-10T10:18:37;21.40;99.90
18805;DHT22;9530;48.930;9.526;2022-07-10T10:21:27;21.50;99.90
18805;DHT22;9530;48.930;9.526;2022-07-10T10:23:54;21.30;99.90
18805;DHT22;9530;48.930;9.526;2022-07-10T10:26:22;20.70;99.90
18805;DHT22;9530;48.930;9.526;2022-07-10T10:28:50;20.70;99.90
18805;DHT22;9530;48.930;9.526;2022-07-10T10:31:18;20.30;99.90
18805;DHT22;9530;48.930;9.526;2022-07-10T10:33:46;20.70;99.90
18805;DHT22;9530;48.930;9.526;2022-07-10T10:36:31;21.20;99.90
18805;DHT22;9530;48.930;9.526;2022-07-10T10:39:09;21.40;99.90
18805;DHT22;9530;48.930;9.526;2022-07-10T10:41:39;21.80;99.90
18805;DHT22;9530;48.930;9.526;2022-07-10T10:44:22;22.00;99.90
18805;DHT22;9530;48.930;9.526;2022-07-10T10:46:55;22.50;99.90
18805;DHT22;9530;48.930;9.526;2022-07-10T10:49:26;22.20;99.90
18805;DHT22;9530;48.930;9.526;2022-07-10T10:51:57;21.40;99.90
18805;DHT22;9530;48.930;9.526;2022-07-10T10:54:25;20.20;99.90
18805;DHT22;9530;48.930;9.526;2022-07-10T10:57:13;19.50;99.90
18805;DHT22;9530;48.930;9.526;2022-07-10T10:59:46;20.00;99.90
18805;DHT22;9530;48.930;9.526;2022-07-10T11:02:25;19.90;99.90
18805;DHT22;9530;48.930;9.526;2022-07-10T11:04:52;20.50;99.90
18805;DHT22;9530;48.930;9.526;2022-07-10T11:07:52;20.60;99.90
18805;DHT22;9530;48.930;9.526;2022-07-10T11:10:31;20.90;99.90
18805;DHT22;9530;48.930;9.526;2022-07-10T11:12:59;20.40;99.90
18805;DHT22;9530;48.930;9.526;2022-07-10T11:15:28;20.00;99.90
18805;DHT22;9530;48.930;9.526;2022-07-10T11:17:55;20.00;99.90
18805;DHT22;9530;48.930;9.526;2022-07-10T11:20:22;20.00;99.90
18805;DHT22;9530;48.930;9.526;2022-07-10T11:22:57;20.50;99.90
18805;DHT22;9530;48.930;9.526;2022-07-10T11:25:41;21.10;99.90
18805;DHT22;9530;48.930;9.526;2022-07-10T11:28:11;21.50;99.90
18805;DHT22;9530;48.930;9.526;2022-07-10T11:30:50;20.30;99.90
18805;DHT22;9530;48.930;9.526;2022-07-10T11:33:17;20.20;99.90
18805;DHT22;9530;48.930;9.526;2022-07-10T11:35:47;19.40;99.90
18805;DHT22;9530;48.930;9.526;2022-07-10T11:38:19;20.00;99.90
18805;DHT22;9530;48.930;9.526;2022-07-10T11:40:47;20.50;99.90
18805;DHT22;9530;48.930;9.526;2022-07-10T11:43:15;20.80;99.90
18805;DHT22;9530;48.930;9.526;2022-07-10T11:45:43;20.50;99.90
18805;DHT22;9530;48.930;9.526;2022-07-10T11:48:16;20.70;99.90
18805;DHT22;9530;48.930;9.526;2022-07-10T11:50:44;20.30;99.90
18805;DHT22;9530;48.930;9.526;2022-07-10T11:53:11;20.60;99.90
18805;DHT22;9530;48.930;9.526;2022-07-10T11:55:38;20.70;99.90
18805;DHT22;9530;48.930;9.526;2022-07-10T11:58:14;20.90;99.90
18805;DHT22;9530;48.930;9.526;2022-07-10T12:00:41;21.30;99.90
18805;DHT22;9530;48.930;9.526;2022-07-10T12:03:17;22.10;99.90
18805;DHT22;9530;48.930;9.526;2022-07-10T12:05:45;22.50;99.90
18805;DHT22;9530;48.930;9.526;2022-07-10T12:08:12;22.60;99.90
18805;DHT22;9530;48.930;9.526;2022-07-10T12:10:39;21.10;99.90
18805;DHT22;9530;48.930;9.526;2022-07-10T12:13:09;20.90;99.90
18805;DHT22;9530;48.930;9.526;2022-07-10T12:15:40;20.70;99.90
18805;DHT22;9530;48.930;9.526;2022-07-10T12:18:07;20.80;99.90
18805;DHT22;9530;48.930;9.526;2022-07-10T12:20:35;21.20;99.90
18805;DHT22;9530;48.930;9.526;2022-07-10T12:23:03;21.80;99.90
18805;DHT22;9530;48.930;9.526;2022-07-10T12:25:30;22.40;99.90
18805;DHT22;9530;48.930;9.526;2022-07-10T12:27:57;22.80;99.90
18805;DHT22;9530;48.930;9.526;2022-07-10T12:30:35;22.90;99.90
18805;DHT22;9530;48.930;9.526;2022-07-10T12:33:08;23.10;99.90
18805;DHT22;9530;48.930;9.526;2022-07-10T12:35:46;22.30;99.90
18805;DHT22;9530;48.930;9.526;2022-07-10T12:38:15;22.10;99.90
18805;DHT22;9530;48.930;9.526;2022-07-10T12:40:42;22.50;99.90
18805;DHT22;9530;48.930;9.526;2022-07-10T12:43:08;22.70;99.90
18805;DHT22;9530;48.930;9.526;2022-07-10T12:45:36;23.00;99.90
18805;DHT22;9530;48.930;9.526;2022-07-10T12:48:04;22.80;99.90
18805;DHT22;9530;48.930;9.526;2022-07-10T12:50:33;21.40;99.90
18805;DHT22;9530;48.930;9.526;2022-07-10T12:53:09;21.20;99.90
18805;DHT22;9530;48.930;9.526;2022-07-10T12:55:38;20.40;99.90
18805;DHT22;9530;48.930;9.526;2022-07-10T12:58:07;21.10;99.90
18805;DHT22;9530;48.930;9.526;2022-07-10T13:00:43;21.40;99.90
18805;DHT22;9530;48.930;9.526;2022-07-10T13:03:18;22.00;99.90
18805;DHT22;9530;48.930;9.526;2022-07-10T13:05:48;22.60;99.90
18805;DHT22;9530;48.930;9.526;2022-07-10T13:08:17;22.70;99.90
18805;DHT22;9530;48.930;9.526;2022-07-10T13:10:47;22.20;99.90
18805;DHT22;9530;48.930;9.526;2022-07-10T13:13:15;21.30;99.90
18805;DHT22;9530;48.930;9.526;2022-07-10T13:15:42;21.90;99.90
18805;DHT22;9530;48.930;9.526;2022-07-10T13:18:13;21.70;99.90
18805;DHT22;9530;48.930;9.526;2022-07-10T13:20:40;20.70;99.90
18805;DHT22;9530;48.930;9.526;2022-07-10T13:23:08;20.50;99.90
18805;DHT22;9530;48.930;9.526;2022-07-10T13:25:36;20.80;99.90
18805;DHT22;9530;48.930;9.526;2022-07-10T13:28:03;20.80;99.90
18805;DHT22;9530;48.930;9.526;2022-07-10T13:30:30;21.40;99.90
18805;DHT22;9530;48.930;9.526;2022-07-10T13:32:57;21.80;99.90
18805;DHT22;9530;48.930;9.526;2022-07-10T13:35:23;22.00;99.90
18805;DHT22;9530;48.930;9.526;2022-07-10T13:37:50;22.50;99.90
18805;DHT22;9530;48.930;9.526;2022-07-10T13:40:18;22.90;99.90
18805;DHT22;9530;48.930;9.526;2022-07-10T13:42:45;23.20;99.90
18805;DHT22;9530;48.930;9.526;2022-07-10T13:45:12;23.80;99.90
18805;DHT22;9530;48.930;9.526;2022-07-10T13:47:39;23.80;99.90
18805;DHT22;9530;48.930;9.526;2022-07-10T13:50:07;23.30;99.90
18805;DHT22;9530;48.930;9.526;2022-07-10T13:52:33;22.50;99.90
18805;DHT22;9530;48.930;9.526;2022-07-10T13:55:00;22.00;99.90
18805;DHT22;9530;48.930;9.526;2022-07-10T13:57:31;22.60;99.90
18805;DHT22;9530;48.930;9.526;2022-07-10T13:59:57;22.80;99.90
18805;DHT22;9530;48.930;9.526;2022-07-10T14:02:24;22.80;99.90
18805;DHT22;9530;48.930;9.526;2022-07-10T14:04:51;21.50;99.90
18805;DHT22;9530;48.930;9.526;2022-07-10T14:07:18;20.80;99.90
18805;DHT22;9530;48.930;9.526;2022-07-10T14:09:44;20.90;99.90
18805;DHT22;9530;48.930;9.526;2022-07-10T14:12:11;21.10;99.90
18805;DHT22;9530;48.930;9.526;2022-07-10T14:14:39;21.00;99.90
18805;DHT22;9530;48.930;9.526;2022-07-10T14:17:06;21.60;99.90
18805;DHT22;9530;48.930;9.526;2022-07-10T14:19:32;21.30;99.90
18805;DHT22;9530;48.930;9.526;2022-07-10T14:21:59;21.60;99.90
18805;DHT22;9530;48.930;9.526;2022-07-10T14:24:26;21.60;99.90
18805;DHT22;9530;48.930;9.526;2022-07-10T14:26:53;22.10;99.90
18805;DHT22;9530;48.930;9.526;2022-07-10T14:29:20;21.20;99.90
18805;DHT22;9530;48.930;9.526;2022-07-10T14:31:48;21.00;99.90
18805;DHT22;9530;48.930;9.526;2022-07-10T14:34:15;21.00;99.90
18805;DHT22;9530;48.930;9.526;2022-07-10T14:36:42;21.10;99.90
18805;DHT22;9530;48.930;9.526;2022-07-10T14:39:08;22.00;99.90
18805;DHT22;9530;48.930;9.526;2022-07-10T14:41:37;22.40;99.90
18805;DHT22;9530;48.930;9.526;2022-07-10T14:44:04;22.40;99.90
18805;DHT22;9530;48.930;9.526;2022-07-10T14:46:31;22.20;99.90
18805;DHT22;9530;48.930;9.526;2022-07-10T14:49:00;22.50;99.90
18805;DHT22;9530;48.930;9.526;2022-07-10T14:51:27;22.40;99.90
18805;DHT22;9530;48.930;9.526;2022-07-10T14:53:54;21.70;99.90
18805;DHT22;9530;48.930;9.526;2022-07-10T14:56:22;21.80;99.90
18805;DHT22;9530;48.930;9.526;2022-07-10T14:58:49;21.60;99.90
18805;DHT22;9530;48.930;9.526;2022-07-10T15:01:16;21.30;99.90
18805;DHT22;9530;48.930;9.526;2022-07-10T15:03:43;21.60;99.90
18805;DHT22;9530;48.930;9.526;2022-07-10T15:06:11;22.10;99.90
18805;DHT22;9530;48.930;9.526;2022-07-10T15:08:38;21.80;99.90
18805;DHT22;9530;48.930;9.526;2022-07-10T15:11:05;21.20;99.90
18805;DHT22;9530;48.930;9.526;2022-07-10T15:13:32;21.30;99.90
18805;DHT22;9530;48.930;9.526;2022-07-10T15:15:59;22.90;99.80
18805;DHT22;9530;48.930;9.526;2022-07-10T15:18:26;23.60;99.00
18805;DHT22;9530;48.930;9.526;2022-07-10T15:20:53;25.50;97.00
18805;DHT22;9530;48.930;9.526;2022-07-10T15:23:21;27.60;95.20
18805;DHT22;9530;48.930;9.526;2022-07-10T15:25:47;28.60;90.00
18805;DHT22;9530;48.930;9.526;2022-07-10T15:28:14;29.20;91.60
18805;DHT22;9530;48.930;9.526;2022-07-10T15:30:41;30.10;85.80
18805;DHT22;9530;48.930;9.526;2022-07-10T15:33:08;31.20;80.40
18805;DHT22;9530;48.930;9.526;2022-07-10T15:35:35;32.10;78.20
18805;DHT22;9530;48.930;9.526;2022-07-10T15:38:02;32.50;70.60
18805;DHT22;9530;48.930;9.526;2022-07-10T15:40:30;32.20;67.60
18805;DHT22;9530;48.930;9.526;2022-07-10T15:42:57;30.00;69.50
18805;DHT22;9530;48.930;9.526;2022-07-10T15:45:24;27.50;72.30
18805;DHT22;9530;48.930;9.526;2022-07-10T15:47:51;28.10;73.20
18805;DHT22;9530;48.930;9.526;2022-07-10T15:50:18;30.50;70.60
18805;DHT22;9530;48.930;9.526;2022-07-10T15:52:45;32.20;66.20